createdAt,value
2018-09-22T00:00:44.406Z,0.00
2018-09-22T00:01:44.498Z,0.00
2018-09-22T00:02:44.589Z,0.00
2018-09-22T00:03:44.680Z,0.00
2018-09-22T00:04:44.774Z,0.00
2018-09-22T00:05:44.862Z,0.00
2018-09-22T00:06:44.959Z,0.00
2018-09-22T00:07:45.085Z,0.00
2018-09-22T00:08:45.159Z,0.00
2018-09-22T00:09:45.250Z,0.00
2018-09-22T00:10:45.341Z,0.00
2018-09-22T00:11:45.434Z,0.00
2018-09-22T00:12:45.525Z,0.00
2018-09-22T00:13:45.608Z,0.00
2018-09-22T00:14:45.698Z,0.00
2018-09-22T00:15:45.789Z,0.00
2018-09-22T00:16:45.885Z,0.00
2018-09-22T00:17:45.978Z,0.00
2018-09-22T00:18:46.071Z,0.00
2018-09-22T00:19:46.162Z,0.00
2018-09-22T00:20:46.254Z,0.00
2018-09-22T00:21:46.356Z,0.00
2018-09-22T00:22:46.439Z,0.00
2018-09-22T00:23:46.532Z,0.00
2018-09-22T00:24:46.624Z,0.00
2018-09-22T00:25:46.765Z,0.00
2018-09-22T00:26:46.799Z,0.00
2018-09-22T00:27:46.890Z,0.00
2018-09-22T00:28:46.999Z,0.00
2018-09-22T00:29:47.110Z,0.00
2018-09-22T00:30:47.199Z,0.00
2018-09-22T00:31:47.292Z,0.00
2018-09-22T00:32:47.389Z,0.00
2018-09-22T00:33:47.477Z,0.00
2018-09-22T00:34:47.571Z,0.00
2018-09-22T00:35:47.659Z,0.00
2018-09-22T00:36:47.750Z,0.00
2018-09-22T00:37:47.844Z,0.00
2018-09-22T00:38:47.936Z,0.00
2018-09-22T00:39:48.024Z,0.00
2018-09-22T00:40:48.116Z,0.00
2018-09-22T00:41:48.211Z,0.00
2018-09-22T00:42:48.302Z,0.00
2018-09-22T00:43:48.394Z,0.00
2018-09-22T00:44:48.492Z,0.00
2018-09-22T00:45:48.571Z,0.00
2018-09-22T00:46:48.663Z,0.00
2018-09-22T00:47:48.754Z,0.00
2018-09-22T00:48:48.847Z,0.00
2018-09-22T00:49:48.940Z,0.00
2018-09-22T00:50:49.031Z,0.00
2018-09-22T00:51:49.141Z,0.00
2018-09-22T00:52:49.231Z,0.00
2018-09-22T00:53:49.329Z,0.00
2018-09-22T00:54:49.418Z,0.00
2018-09-22T00:55:49.507Z,0.00
2018-09-22T00:56:49.600Z,0.00
2018-09-22T00:57:49.696Z,0.00
2018-09-22T00:58:49.787Z,0.00
2018-09-22T00:59:49.872Z,0.00
2018-09-22T01:00:49.964Z,0.00
2018-09-22T01:01:50.058Z,4.00
2018-09-22T01:02:50.153Z,0.00
2018-09-22T01:03:50.245Z,0.00
2018-09-22T01:04:50.337Z,0.00
2018-09-22T01:05:50.433Z,0.00
2018-09-22T01:06:50.524Z,0.00
2018-09-22T01:07:50.615Z,0.00
2018-09-22T01:08:50.709Z,0.00
2018-09-22T01:09:50.800Z,0.00
2018-09-22T01:10:50.895Z,0.00
2018-09-22T01:11:50.991Z,0.00
2018-09-22T01:12:51.082Z,0.00
2018-09-22T01:13:51.171Z,0.00
2018-09-22T01:14:51.266Z,0.00
2018-09-22T01:15:51.443Z,0.00
2018-09-22T01:16:51.450Z,0.00
2018-09-22T01:17:51.542Z,0.00
2018-09-22T01:18:51.635Z,0.00
2018-09-22T01:19:51.731Z,0.00
2018-09-22T01:20:51.818Z,0.00
2018-09-22T01:21:51.911Z,0.00
2018-09-22T01:22:52.003Z,0.00
2018-09-22T01:23:52.098Z,0.00
2018-09-22T01:24:52.191Z,0.00
2018-09-22T01:25:52.281Z,0.00
2018-09-22T01:26:52.375Z,0.00
2018-09-22T01:27:52.468Z,0.00
2018-09-22T01:28:52.561Z,0.00
2018-09-22T01:29:52.651Z,0.00
2018-09-22T01:30:52.744Z,0.00
2018-09-22T01:31:52.837Z,0.00
2018-09-22T01:32:52.985Z,0.00
2018-09-22T01:33:53.021Z,0.00
2018-09-22T01:34:53.111Z,0.00
2018-09-22T01:35:53.207Z,0.00
2018-09-22T01:36:53.318Z,0.00
2018-09-22T01:37:53.408Z,0.00
2018-09-22T01:38:53.501Z,0.00
2018-09-22T01:39:53.592Z,0.00
2018-09-22T01:40:53.688Z,0.00
2018-09-22T01:41:53.777Z,0.00
2018-09-22T01:42:53.872Z,0.00
2018-09-22T01:43:53.961Z,0.00
2018-09-22T01:44:54.052Z,0.00
2018-09-22T01:45:54.145Z,0.00
2018-09-22T01:46:54.238Z,0.00
2018-09-22T01:47:54.332Z,0.00
2018-09-22T01:48:54.424Z,0.00
2018-09-22T01:49:54.517Z,0.00
2018-09-22T01:50:54.608Z,0.00
2018-09-22T01:51:54.699Z,0.00
2018-09-22T01:52:54.790Z,0.00
2018-09-22T01:53:54.884Z,0.00
2018-09-22T01:54:54.975Z,0.00
2018-09-22T01:55:55.066Z,0.00
2018-09-22T01:56:55.161Z,0.00
2018-09-22T01:57:55.252Z,0.00
2018-09-22T01:58:55.346Z,0.00
2018-09-22T01:59:55.438Z,0.00
2018-09-22T02:00:55.530Z,0.00
2018-09-22T02:01:55.623Z,0.00
2018-09-22T02:02:55.714Z,0.00
2018-09-22T02:03:55.804Z,0.00
2018-09-22T02:04:55.896Z,0.00
2018-09-22T02:05:55.992Z,0.00
2018-09-22T02:06:56.083Z,0.00
2018-09-22T02:07:56.176Z,0.00
2018-09-22T02:08:56.277Z,0.00
2018-09-22T02:09:56.371Z,0.00
2018-09-22T02:10:56.463Z,0.00
2018-09-22T02:11:56.555Z,0.00
2018-09-22T02:12:56.650Z,0.00
2018-09-22T02:13:56.743Z,0.00
2018-09-22T02:14:56.838Z,0.00
2018-09-22T02:15:56.931Z,0.00
2018-09-22T02:16:57.021Z,0.00
2018-09-22T02:17:57.112Z,0.00
2018-09-22T02:18:57.208Z,0.00
2018-09-22T02:19:57.298Z,0.00
2018-09-22T02:20:57.391Z,0.00
2018-09-22T02:21:57.495Z,0.00
2018-09-22T02:22:57.589Z,0.00
2018-09-22T02:23:57.685Z,0.00
2018-09-22T02:24:57.772Z,0.00
2018-09-22T02:25:57.864Z,0.00
2018-09-22T02:26:57.954Z,0.00
2018-09-22T02:27:58.045Z,0.00
2018-09-22T02:28:58.138Z,0.00
2018-09-22T02:29:58.232Z,0.00
2018-09-22T02:30:58.323Z,0.00
2018-09-22T02:31:58.416Z,0.00
2018-09-22T02:32:58.503Z,0.00
2018-09-22T02:33:58.602Z,0.00
2018-09-22T02:34:58.697Z,0.00
2018-09-22T02:35:58.788Z,0.00
2018-09-22T02:36:58.881Z,0.00
2018-09-22T02:37:58.972Z,0.00
2018-09-22T02:38:59.066Z,0.00
2018-09-22T02:39:59.162Z,0.00
2018-09-22T02:40:59.253Z,0.00
2018-09-22T02:41:59.379Z,0.00
2018-09-22T02:42:59.435Z,0.00
2018-09-22T02:43:59.528Z,0.00
2018-09-22T02:44:59.621Z,0.00
2018-09-22T02:45:59.714Z,0.00
2018-09-22T02:46:59.864Z,0.00
2018-09-22T02:47:59.898Z,0.00
2018-09-22T02:48:59.992Z,0.00
2018-09-22T02:50:00.081Z,0.00
2018-09-22T02:51:00.174Z,0.00
2018-09-22T02:52:00.269Z,0.00
2018-09-22T02:53:00.360Z,0.00
2018-09-22T02:54:00.453Z,0.00
2018-09-22T02:55:00.548Z,0.00
2018-09-22T02:56:00.641Z,0.00
2018-09-22T02:57:00.733Z,0.00
2018-09-22T02:58:00.825Z,0.00
2018-09-22T02:59:00.920Z,0.00
2018-09-22T03:00:01.010Z,0.00
2018-09-22T03:01:01.093Z,0.00
2018-09-22T03:02:01.183Z,0.00
2018-09-22T03:03:01.273Z,0.00
2018-09-22T03:04:01.366Z,0.00
2018-09-22T03:05:01.458Z,0.00
2018-09-22T03:06:01.553Z,0.00
2018-09-22T03:07:01.643Z,0.00
2018-09-22T03:08:01.736Z,0.00
2018-09-22T03:09:01.827Z,0.00
2018-09-22T03:10:01.940Z,0.00
2018-09-22T03:11:02.000Z,0.00
2018-09-22T03:12:02.095Z,0.00
2018-09-22T03:13:02.190Z,0.00
2018-09-22T03:14:02.283Z,0.00
2018-09-22T03:15:02.370Z,0.00
2018-09-22T03:16:02.461Z,0.00
2018-09-22T03:17:02.553Z,0.00
2018-09-22T03:18:02.647Z,0.00
2018-09-22T03:19:02.741Z,0.00
2018-09-22T03:20:02.830Z,0.00
2018-09-22T03:21:02.924Z,0.00
2018-09-22T03:22:03.016Z,0.00
2018-09-22T03:23:03.108Z,0.00
2018-09-22T03:24:03.201Z,0.00
2018-09-22T03:25:03.292Z,0.00
2018-09-22T03:26:03.387Z,0.00
2018-09-22T03:27:03.480Z,0.00
2018-09-22T03:28:03.572Z,0.00
2018-09-22T03:29:03.662Z,0.00
2018-09-22T03:30:03.755Z,0.00
2018-09-22T03:31:03.850Z,0.00
2018-09-22T03:32:03.945Z,0.00
2018-09-22T03:33:04.033Z,0.00
2018-09-22T03:34:04.126Z,0.00
2018-09-22T03:35:04.219Z,0.00
2018-09-22T03:36:04.311Z,0.00
2018-09-22T03:37:04.405Z,0.00
2018-09-22T03:38:04.497Z,0.00
2018-09-22T03:39:04.600Z,0.00
2018-09-22T03:40:04.682Z,0.00
2018-09-22T03:41:04.773Z,0.00
2018-09-22T03:42:04.867Z,0.00
2018-09-22T03:43:04.958Z,0.00
2018-09-22T03:44:05.053Z,0.00
2018-09-22T03:45:05.144Z,0.00
2018-09-22T03:46:05.234Z,0.00
2018-09-22T03:47:05.325Z,0.00
2018-09-22T03:48:05.419Z,0.00
2018-09-22T03:49:05.513Z,0.00
2018-09-22T03:50:05.604Z,0.00
2018-09-22T03:51:05.698Z,0.00
2018-09-22T03:52:05.788Z,0.00
2018-09-22T03:53:05.879Z,0.00
2018-09-22T03:54:05.975Z,0.00
2018-09-22T03:55:06.067Z,0.00
2018-09-22T03:56:06.157Z,0.00
2018-09-22T03:57:06.248Z,0.00
2018-09-22T03:58:06.364Z,0.00
2018-09-22T03:59:06.455Z,0.00
2018-09-22T04:00:06.547Z,0.00
2018-09-22T04:01:06.640Z,0.00
2018-09-22T04:02:06.732Z,0.00
2018-09-22T04:03:06.831Z,0.00
2018-09-22T04:04:06.925Z,0.00
2018-09-22T04:05:07.021Z,0.00
2018-09-22T04:06:07.110Z,0.00
2018-09-22T04:07:07.206Z,0.00
2018-09-22T04:08:07.303Z,0.00
2018-09-22T04:09:07.395Z,0.00
2018-09-22T04:10:07.484Z,0.00
2018-09-22T04:11:07.588Z,0.00
2018-09-22T04:12:07.681Z,0.00
2018-09-22T04:13:07.773Z,0.00
2018-09-22T04:14:07.867Z,0.00
2018-09-22T04:15:07.962Z,0.00
2018-09-22T04:16:08.057Z,0.00
2018-09-22T04:17:08.147Z,0.00
2018-09-22T04:18:08.236Z,0.00
2018-09-22T04:19:08.331Z,0.00
2018-09-22T04:20:08.423Z,0.00
2018-09-22T04:21:08.515Z,0.00
2018-09-22T04:22:08.608Z,0.00
2018-09-22T04:23:08.705Z,0.00
2018-09-22T04:24:08.808Z,0.00
2018-09-22T04:25:08.901Z,0.00
2018-09-22T04:26:08.994Z,0.00
2018-09-22T04:27:09.089Z,0.00
2018-09-22T04:28:09.180Z,0.00
2018-09-22T04:29:09.282Z,0.00
2018-09-22T04:30:09.367Z,0.00
2018-09-22T04:31:09.458Z,0.00
2018-09-22T04:32:09.548Z,4.00
2018-09-22T04:33:09.679Z,4.00
2018-09-22T04:34:09.735Z,4.00
2018-09-22T04:35:09.828Z,4.00
2018-09-22T04:36:09.922Z,4.00
2018-09-22T04:37:10.030Z,4.00
2018-09-22T04:38:10.123Z,4.00
2018-09-22T04:39:10.215Z,4.00
2018-09-22T04:40:10.310Z,4.00
2018-09-22T04:41:10.401Z,4.00
2018-09-22T04:42:10.491Z,8.00
2018-09-22T04:43:10.584Z,4.00
2018-09-22T04:44:10.678Z,4.00
2018-09-22T04:45:10.771Z,8.00
2018-09-22T04:46:10.866Z,8.00
2018-09-22T04:47:10.957Z,12.00
2018-09-22T04:48:11.047Z,12.00
2018-09-22T04:49:11.137Z,16.00
2018-09-22T04:50:11.230Z,16.00
2018-09-22T04:51:11.327Z,24.00
2018-09-22T04:52:11.416Z,28.00
2018-09-22T04:53:11.507Z,28.00
2018-09-22T04:54:11.600Z,36.00
2018-09-22T04:55:11.693Z,40.00
2018-09-22T04:56:11.787Z,44.00
2018-09-22T04:57:11.877Z,52.00
2018-09-22T04:58:11.970Z,60.00
2018-09-22T04:59:12.064Z,72.00
2018-09-22T05:00:12.155Z,84.00
2018-09-22T05:01:12.248Z,96.00
2018-09-22T05:02:12.347Z,112.00
2018-09-22T05:03:12.435Z,132.00
2018-09-22T05:04:12.524Z,160.00
2018-09-22T05:05:12.619Z,176.00
2018-09-22T05:06:12.724Z,188.00
2018-09-22T05:07:12.814Z,208.00
2018-09-22T05:08:12.908Z,220.00
2018-09-22T05:09:12.999Z,224.00
2018-09-22T05:10:13.095Z,244.00
2018-09-22T05:11:13.185Z,260.00
2018-09-22T05:12:13.277Z,272.00
2018-09-22T05:13:13.367Z,304.00
2018-09-22T05:14:13.461Z,324.00
2018-09-22T05:15:13.552Z,352.00
2018-09-22T05:16:13.649Z,384.00
2018-09-22T05:17:13.793Z,408.00
2018-09-22T05:18:13.841Z,432.00
2018-09-22T05:19:13.934Z,448.00
2018-09-22T05:20:14.026Z,460.00
2018-09-22T05:21:14.122Z,484.00
2018-09-22T05:22:14.214Z,516.00
2018-09-22T05:23:14.311Z,548.00
2018-09-22T05:24:14.402Z,596.00
2018-09-22T05:25:14.483Z,636.00
2018-09-22T05:26:14.574Z,676.00
2018-09-22T05:27:14.670Z,708.00
2018-09-22T05:28:14.765Z,760.00
2018-09-22T05:29:14.855Z,828.00
2018-09-22T05:30:14.948Z,904.00
2018-09-22T05:31:15.065Z,976.00
2018-09-22T05:32:15.159Z,1052.00
2018-09-22T05:33:15.260Z,1124.00
2018-09-22T05:34:15.341Z,1168.00
2018-09-22T05:35:15.433Z,1208.00
2018-09-22T05:36:15.526Z,1256.00
2018-09-22T05:37:15.618Z,1296.00
2018-09-22T05:38:15.708Z,1316.00
2018-09-22T05:39:15.793Z,1384.00
2018-09-22T05:40:15.886Z,1420.00
2018-09-22T05:41:15.978Z,1460.00
2018-09-22T05:42:16.073Z,1460.00
2018-09-22T05:43:16.163Z,1456.00
2018-09-22T05:44:16.259Z,1396.00
2018-09-22T05:45:16.353Z,1392.00
2018-09-22T05:46:16.445Z,1428.00
2018-09-22T05:47:16.537Z,1444.00
2018-09-22T05:48:16.634Z,1500.00
2018-09-22T05:49:16.725Z,1560.00
2018-09-22T05:50:16.820Z,1628.00
2018-09-22T05:51:16.914Z,1688.00
2018-09-22T05:52:17.008Z,1736.00
2018-09-22T05:53:17.098Z,1664.00
2018-09-22T05:54:17.192Z,1564.00
2018-09-22T05:55:17.290Z,1560.00
2018-09-22T05:56:17.377Z,1592.00
2018-09-22T05:57:24.625Z,1684.00
2018-09-22T05:58:17.610Z,1732.00
2018-09-22T05:59:17.690Z,1700.00
2018-09-22T06:00:17.799Z,1760.00
2018-09-22T06:01:17.890Z,1800.00
2018-09-22T06:02:17.982Z,1688.00
2018-09-22T06:03:18.074Z,1648.00
2018-09-22T06:04:18.169Z,1712.00
2018-09-22T06:05:18.262Z,1748.00
2018-09-22T06:06:18.353Z,1728.00
2018-09-22T06:07:18.448Z,1756.00
2018-09-22T06:08:18.542Z,1780.00
2018-09-22T06:09:18.639Z,1844.00
2018-09-22T06:10:18.737Z,1824.00
2018-09-22T06:11:18.826Z,1776.00
2018-09-22T06:12:18.917Z,1804.00
2018-09-22T06:13:19.010Z,1884.00
2018-09-22T06:14:19.108Z,2004.00
2018-09-22T06:15:19.200Z,2072.00
2018-09-22T06:16:19.299Z,2248.00
2018-09-22T06:17:19.393Z,2264.00
2018-09-22T06:18:19.486Z,2416.00
2018-09-22T06:19:19.590Z,2464.00
2018-09-22T06:20:19.670Z,2852.00
2018-09-22T06:21:19.770Z,2668.00
2018-09-22T06:22:19.856Z,4112.00
2018-09-22T06:23:20.001Z,4348.00
2018-09-22T06:24:20.045Z,6796.00
2018-09-22T06:25:20.136Z,4320.00
2018-09-22T06:26:20.229Z,4684.00
2018-09-22T06:27:20.322Z,5200.00
2018-09-22T06:28:20.418Z,2892.00
2018-09-22T06:29:20.511Z,2972.00
2018-09-22T06:30:20.602Z,2824.00
2018-09-22T06:31:20.691Z,2924.00
2018-09-22T06:32:20.785Z,3152.00
2018-09-22T06:33:20.880Z,2796.00
2018-09-22T06:34:20.971Z,2972.00
2018-09-22T06:35:21.089Z,3484.00
2018-09-22T06:36:21.234Z,2784.00
2018-09-22T06:37:21.375Z,2612.00
2018-09-22T06:38:21.394Z,2784.00
2018-09-22T06:39:21.485Z,2860.00
2018-09-22T06:40:21.577Z,2984.00
2018-09-22T06:41:21.674Z,3276.00
2018-09-22T06:42:21.765Z,3360.00
2018-09-22T06:43:21.854Z,3896.00
2018-09-22T06:44:21.947Z,4208.00
2018-09-22T06:45:22.042Z,4120.00
2018-09-22T06:46:22.183Z,4436.00
2018-09-22T06:47:22.212Z,4416.00
2018-09-22T06:48:22.304Z,4340.00
2018-09-22T06:49:22.414Z,4012.00
2018-09-22T06:50:22.507Z,3920.00
2018-09-22T06:51:22.603Z,3604.00
2018-09-22T06:52:22.695Z,3544.00
2018-09-22T06:53:22.791Z,3324.00
2018-09-22T06:54:22.881Z,3408.00
2018-09-22T06:55:22.976Z,3288.00
2018-09-22T06:56:23.070Z,3280.00
2018-09-22T06:57:23.164Z,2972.00
2018-09-22T06:58:23.255Z,2828.00
2018-09-22T06:59:23.351Z,2648.00
2018-09-22T07:00:23.442Z,2552.00
2018-09-22T07:01:23.526Z,2496.00
2018-09-22T07:02:23.637Z,2508.00
2018-09-22T07:03:23.728Z,2440.00
2018-09-22T07:04:23.823Z,2376.00
2018-09-22T07:05:23.922Z,2768.00
2018-09-22T07:06:24.027Z,2924.00
2018-09-22T07:07:24.107Z,3624.00
2018-09-22T07:08:24.199Z,3728.00
2018-09-22T07:09:24.292Z,4056.00
2018-09-22T07:10:24.385Z,3968.00
2018-09-22T07:11:24.476Z,3672.00
2018-09-22T07:12:24.571Z,3424.00
2018-09-22T07:13:24.666Z,3204.00
2018-09-22T07:14:24.762Z,3356.00
2018-09-22T07:15:24.859Z,3124.00
2018-09-22T07:16:24.952Z,3244.00
2018-09-22T07:17:25.068Z,3308.00
2018-09-22T07:18:25.130Z,3284.00
2018-09-22T07:19:25.277Z,3464.00
2018-09-22T07:20:25.320Z,3572.00
2018-09-22T07:21:25.415Z,3376.00
2018-09-22T07:22:25.496Z,2944.00
2018-09-22T07:23:25.591Z,3408.00
2018-09-22T07:24:25.686Z,3308.00
2018-09-22T07:25:32.924Z,3576.00
2018-09-22T07:26:25.899Z,3756.00
2018-09-22T07:27:25.988Z,3844.00
2018-09-22T07:28:26.101Z,3812.00
2018-09-22T07:29:26.172Z,3856.00
2018-09-22T07:30:26.267Z,3844.00
2018-09-22T07:31:26.355Z,3868.00
2018-09-22T07:32:26.451Z,4380.00
2018-09-22T07:33:26.536Z,4244.00
2018-09-22T07:34:26.626Z,4764.00
2018-09-22T07:35:26.720Z,4948.00
2018-09-22T07:36:26.815Z,5252.00
2018-09-22T07:37:26.909Z,4724.00
2018-09-22T07:38:27.004Z,5340.00
2018-09-22T07:39:27.131Z,5724.00
2018-09-22T07:40:27.194Z,5556.00
2018-09-22T07:41:34.431Z,5368.00
2018-09-22T07:42:27.397Z,5488.00
2018-09-22T07:43:27.490Z,5464.00
2018-09-22T07:44:27.589Z,5256.00
2018-09-22T07:45:27.684Z,5308.00
2018-09-22T07:46:27.844Z,5160.00
2018-09-22T07:47:27.858Z,5476.00
2018-09-22T07:48:27.955Z,5088.00
2018-09-22T07:49:28.051Z,4888.00
2018-09-22T07:50:28.144Z,3712.00
2018-09-22T07:51:28.240Z,4232.00
2018-09-22T07:52:28.355Z,4032.00
2018-09-22T07:53:28.419Z,3688.00
2018-09-22T07:54:28.528Z,4004.00
2018-09-22T07:55:28.627Z,4172.00
2018-09-22T07:56:28.721Z,4336.00
2018-09-22T07:57:28.817Z,3464.00
2018-09-22T07:58:28.914Z,3504.00
2018-09-22T07:59:29.008Z,4460.00
2018-09-22T08:00:29.182Z,5444.00
2018-09-22T08:01:29.198Z,5360.00
2018-09-22T08:02:29.301Z,5732.00
2018-09-22T08:03:29.398Z,4628.00
2018-09-22T08:04:29.507Z,4128.00
2018-09-22T08:05:29.585Z,5064.00
2018-09-22T08:06:29.681Z,5820.00
2018-09-22T08:07:29.776Z,5724.00
2018-09-22T08:08:29.867Z,4708.00
2018-09-22T08:09:29.960Z,5756.00
2018-09-22T08:10:30.054Z,4708.00
2018-09-22T08:11:30.158Z,5196.00
2018-09-22T08:12:30.235Z,4792.00
2018-09-22T08:13:30.334Z,5332.00
2018-09-22T08:14:30.425Z,4828.00
2018-09-22T08:15:30.521Z,5820.00
2018-09-22T08:16:30.620Z,5040.00
2018-09-22T08:17:30.728Z,6072.00
2018-09-22T08:18:30.814Z,6744.00
2018-09-22T08:19:30.907Z,6776.00
2018-09-22T08:20:30.997Z,6744.00
2018-09-22T08:21:31.103Z,6868.00
2018-09-22T08:22:31.187Z,6944.00
2018-09-22T08:23:31.280Z,6980.00
2018-09-22T08:24:31.389Z,6340.00
2018-09-22T08:25:31.482Z,5164.00
2018-09-22T08:26:31.578Z,5056.00
2018-09-22T08:27:31.682Z,5156.00
2018-09-22T08:28:31.803Z,4940.00
2018-09-22T08:29:31.860Z,4972.00
2018-09-22T08:30:31.951Z,5228.00
2018-09-22T08:31:32.052Z,5716.00
2018-09-22T08:32:32.162Z,6024.00
2018-09-22T08:33:32.264Z,6112.00
2018-09-22T08:34:32.360Z,5944.00
2018-09-22T08:35:32.449Z,5392.00
2018-09-22T08:36:32.731Z,5300.00
2018-09-22T08:37:32.635Z,6612.00
2018-09-22T08:38:32.723Z,6008.00
2018-09-22T08:39:32.822Z,6616.00
2018-09-22T08:40:32.922Z,6052.00
2018-09-22T08:41:33.018Z,6708.00
2018-09-22T08:42:33.117Z,6976.00
2018-09-22T08:43:33.215Z,6492.00
2018-09-22T08:44:33.306Z,5908.00
2018-09-22T08:45:33.399Z,5716.00
2018-09-22T08:46:33.493Z,5312.00
2018-09-22T08:47:33.625Z,5072.00
2018-09-22T08:48:33.708Z,5948.00
2018-09-22T08:49:33.824Z,5380.00
2018-09-22T08:50:33.902Z,5976.00
2018-09-22T08:51:34.000Z,5216.00
2018-09-22T08:52:34.088Z,4616.00
2018-09-22T08:53:34.191Z,5652.00
2018-09-22T08:54:34.283Z,4648.00
2018-09-22T08:55:34.384Z,5520.00
2018-09-22T08:56:34.461Z,5224.00
2018-09-22T08:57:34.562Z,4404.00
2018-09-22T08:58:34.654Z,5768.00
2018-09-22T08:59:34.757Z,5104.00
2018-09-22T09:00:34.920Z,5056.00
2018-09-22T09:01:34.923Z,5204.00
2018-09-22T09:02:35.017Z,5364.00
2018-09-22T09:03:35.113Z,5560.00
2018-09-22T09:04:35.205Z,5680.00
2018-09-22T09:05:35.304Z,5500.00
2018-09-22T09:06:35.400Z,5864.00
2018-09-22T09:07:35.486Z,4816.00
2018-09-22T09:08:35.580Z,4652.00
2018-09-22T09:09:35.681Z,5576.00
2018-09-22T09:10:35.777Z,6064.00
2018-09-22T09:11:35.872Z,5484.00
2018-09-22T09:12:35.967Z,5200.00
2018-09-22T09:13:36.115Z,5404.00
2018-09-22T09:14:36.206Z,5572.00
2018-09-22T09:15:36.292Z,6048.00
2018-09-22T09:16:36.385Z,5680.00
2018-09-22T09:17:36.480Z,5628.00
2018-09-22T09:18:36.573Z,5652.00
2018-09-22T09:19:36.681Z,5516.00
2018-09-22T09:20:36.781Z,5120.00
2018-09-22T09:21:36.876Z,5056.00
2018-09-22T09:22:36.977Z,5172.00
2018-09-22T09:23:37.068Z,5076.00
2018-09-22T09:24:37.161Z,5144.00
2018-09-22T09:25:37.257Z,4896.00
2018-09-22T09:26:37.352Z,4348.00
2018-09-22T09:27:37.471Z,3736.00
2018-09-22T09:28:37.545Z,4000.00
2018-09-22T09:29:37.637Z,4628.00
2018-09-22T09:30:37.734Z,4932.00
2018-09-22T09:31:37.826Z,5340.00
2018-09-22T09:32:37.923Z,5664.00
2018-09-22T09:33:38.014Z,5336.00
2018-09-22T09:34:38.110Z,5420.00
2018-09-22T09:35:38.206Z,5240.00
2018-09-22T09:36:38.300Z,5112.00
2018-09-22T09:37:38.396Z,4868.00
2018-09-22T09:38:38.490Z,4848.00
2018-09-22T09:39:38.588Z,4916.00
2018-09-22T09:40:38.717Z,4592.00
2018-09-22T09:41:38.811Z,3716.00
2018-09-22T09:42:38.918Z,4388.00
2018-09-22T09:43:39.060Z,3248.00
2018-09-22T09:44:39.103Z,3360.00
2018-09-22T09:45:39.206Z,4552.00
2018-09-22T09:46:39.296Z,4708.00
2018-09-22T09:47:39.390Z,5244.00
2018-09-22T09:48:39.490Z,6560.00
2018-09-22T09:49:39.581Z,5724.00
2018-09-22T09:50:39.674Z,5944.00
2018-09-22T09:51:39.768Z,4812.00
2018-09-22T09:52:39.868Z,5320.00
2018-09-22T09:53:39.968Z,6512.00
2018-09-22T09:54:40.061Z,7208.00
2018-09-22T09:55:40.154Z,5076.00
2018-09-22T09:56:40.250Z,4636.00
2018-09-22T09:57:40.344Z,5356.00
2018-09-22T09:58:40.435Z,4344.00
2018-09-22T09:59:40.529Z,4180.00
2018-09-22T10:00:40.629Z,4828.00
2018-09-22T10:01:40.721Z,5828.00
2018-09-22T10:02:40.817Z,4320.00
2018-09-22T10:03:40.918Z,6040.00
2018-09-22T10:04:41.013Z,5972.00
2018-09-22T10:05:41.096Z,3716.00
2018-09-22T10:06:41.194Z,3644.00
2018-09-22T10:07:41.305Z,4652.00
2018-09-22T10:08:41.385Z,3204.00
2018-09-22T10:09:41.481Z,3892.00
2018-09-22T10:10:41.574Z,5176.00
2018-09-22T10:11:41.730Z,5376.00
2018-09-22T10:12:41.760Z,5544.00
2018-09-22T10:13:41.872Z,5728.00
2018-09-22T10:14:41.969Z,5632.00
2018-09-22T10:15:42.072Z,5548.00
2018-09-22T10:16:42.175Z,4572.00
2018-09-22T10:17:42.271Z,5492.00
2018-09-22T10:18:42.363Z,5864.00
2018-09-22T10:19:42.460Z,6280.00
2018-09-22T10:20:42.585Z,4368.00
2018-09-22T10:21:42.683Z,4476.00
2018-09-22T10:22:42.774Z,5916.00
2018-09-22T10:23:42.873Z,5944.00
2018-09-22T10:24:43.003Z,6384.00
2018-09-22T10:25:43.096Z,6544.00
2018-09-22T10:26:43.206Z,6096.00
2018-09-22T10:27:43.298Z,6204.00
2018-09-22T10:28:43.452Z,6812.00
2018-09-22T10:29:43.493Z,7136.00
2018-09-22T10:30:43.598Z,7360.00
2018-09-22T10:31:43.691Z,7528.00
2018-09-22T10:32:43.787Z,5076.00
2018-09-22T10:33:43.923Z,6344.00
2018-09-22T10:34:43.980Z,7876.00
2018-09-22T10:35:44.073Z,8572.00
2018-09-22T10:36:44.204Z,6132.00
2018-09-22T10:37:44.254Z,6412.00
2018-09-22T10:38:44.349Z,7348.00
2018-09-22T10:39:44.505Z,9476.00
2018-09-22T10:40:44.553Z,9260.00
2018-09-22T10:41:44.645Z,6900.00
2018-09-22T10:42:44.746Z,6532.00
2018-09-22T10:43:44.839Z,7608.00
2018-09-22T10:44:44.935Z,7268.00
2018-09-22T10:45:45.033Z,8160.00
2018-09-22T10:46:45.137Z,7064.00
2018-09-22T10:47:45.236Z,7140.00
2018-09-22T10:48:45.331Z,5772.00
2018-09-22T10:49:45.426Z,8056.00
2018-09-22T10:50:45.521Z,7100.00
2018-09-22T10:51:45.621Z,7652.00
2018-09-22T10:52:45.765Z,7432.00
2018-09-22T10:53:45.812Z,7864.00
2018-09-22T10:54:45.912Z,7324.00
2018-09-22T10:55:46.014Z,4676.00
2018-09-22T10:56:46.109Z,4944.00
2018-09-22T10:57:46.204Z,7216.00
2018-09-22T10:58:46.298Z,7148.00
2018-09-22T10:59:46.399Z,7128.00
2018-09-22T11:00:46.495Z,7232.00
2018-09-22T11:01:46.586Z,6552.00
2018-09-22T11:02:46.756Z,6420.00
2018-09-22T11:03:46.730Z,4496.00
2018-09-22T11:04:46.827Z,6648.00
2018-09-22T11:05:46.924Z,6836.00
2018-09-22T11:06:47.019Z,4288.00
2018-09-22T11:07:47.116Z,4176.00
2018-09-22T11:08:47.214Z,4124.00
2018-09-22T11:09:47.312Z,6400.00
2018-09-22T11:10:47.406Z,5960.00
2018-09-22T11:11:47.501Z,7000.00
2018-09-22T11:12:47.601Z,5256.00
2018-09-22T11:13:47.697Z,4840.00
2018-09-22T11:14:47.798Z,4544.00
2018-09-22T11:15:47.895Z,4652.00
2018-09-22T11:16:47.996Z,5820.00
2018-09-22T11:17:48.092Z,6120.00
2018-09-22T11:18:48.193Z,8248.00
2018-09-22T11:19:48.285Z,8052.00
2018-09-22T11:20:48.380Z,7520.00
2018-09-22T11:21:48.478Z,7652.00
2018-09-22T11:22:48.578Z,7784.00
2018-09-22T11:23:48.675Z,6548.00
2018-09-22T11:24:48.775Z,7084.00
2018-09-22T11:25:48.876Z,7352.00
2018-09-22T11:26:49.025Z,7208.00
2018-09-22T11:27:49.099Z,7204.00
2018-09-22T11:28:49.201Z,7328.00
2018-09-22T11:29:49.297Z,7244.00
2018-09-22T11:30:49.947Z,7332.00
2018-09-22T11:31:49.540Z,4476.00
2018-09-22T11:32:49.640Z,7412.00
2018-09-22T11:33:49.738Z,5880.00
2018-09-22T11:34:49.833Z,5740.00
2018-09-22T11:35:49.931Z,4208.00
2018-09-22T11:36:50.030Z,4612.00
2018-09-22T11:37:50.127Z,3644.00
2018-09-22T11:38:50.222Z,6604.00
2018-09-22T11:39:50.324Z,6892.00
2018-09-22T11:40:50.424Z,8764.00
2018-09-22T11:41:50.519Z,7048.00
2018-09-22T11:42:50.612Z,4484.00
2018-09-22T11:43:50.742Z,6548.00
2018-09-22T11:44:50.806Z,7472.00
2018-09-22T11:45:50.902Z,7472.00
2018-09-22T11:46:50.997Z,7040.00
2018-09-22T11:47:51.095Z,6948.00
2018-09-22T11:48:51.195Z,3736.00
2018-09-22T11:49:51.287Z,7268.00
2018-09-22T11:50:51.381Z,7288.00
2018-09-22T11:51:58.620Z,8620.00
2018-09-22T11:52:51.591Z,5756.00
2018-09-22T11:53:51.689Z,8068.00
2018-09-22T11:54:51.787Z,5732.00
2018-09-22T11:55:51.876Z,5640.00
2018-09-22T11:56:51.971Z,5804.00
2018-09-22T11:58:00.772Z,6608.00
2018-09-22T11:58:52.107Z,7308.00
2018-09-22T11:59:52.203Z,7224.00
2018-09-22T12:00:52.301Z,6048.00
2018-09-22T12:01:52.441Z,5852.00
2018-09-22T12:02:52.499Z,6380.00
2018-09-22T12:03:52.594Z,6816.00
2018-09-22T12:04:52.690Z,7936.00
2018-09-22T12:05:52.846Z,8268.00
2018-09-22T12:06:52.890Z,7204.00
2018-09-22T12:07:52.984Z,7028.00
2018-09-22T12:08:53.081Z,6860.00
2018-09-22T12:09:53.177Z,7044.00
2018-09-22T12:10:53.274Z,7024.00
2018-09-22T12:11:53.369Z,6688.00
2018-09-22T12:12:53.468Z,6484.00
2018-09-22T12:13:53.569Z,6452.00
2018-09-22T12:14:53.679Z,6124.00
2018-09-22T12:15:53.775Z,5928.00
2018-09-22T12:16:53.873Z,5752.00
2018-09-22T12:17:53.967Z,5552.00
2018-09-22T12:18:54.064Z,5600.00
2018-09-22T12:19:54.163Z,5760.00
2018-09-22T12:20:54.260Z,5856.00
2018-09-22T12:21:54.355Z,5728.00
2018-09-22T12:22:54.455Z,5852.00
2018-09-22T12:23:54.555Z,5552.00
2018-09-22T12:24:54.653Z,5436.00
2018-09-22T12:25:54.750Z,5224.00
2018-09-22T12:26:54.848Z,5064.00
2018-09-22T12:27:54.945Z,4952.00
2018-09-22T12:28:55.039Z,4808.00
2018-09-22T12:29:55.136Z,4736.00
2018-09-22T12:30:55.235Z,4720.00
2018-09-22T12:31:55.391Z,4636.00
2018-09-22T12:32:55.424Z,4632.00
2018-09-22T12:33:55.519Z,4804.00
2018-09-22T12:34:55.620Z,4904.00